createdAt,value
2022-09-23T00:01:22.299Z,10.80
2022-09-23T00:03:50.511Z,10.80
2022-09-23T00:06:20.541Z,10.79
2022-09-23T00:08:49.821Z,10.81
2022-09-23T00:11:28.497Z,10.85
2022-09-23T00:13:58.478Z,10.89
2022-09-23T00:16:30.091Z,10.94
2022-09-23T00:18:58.449Z,10.98
2022-09-23T00:21:26.194Z,11.01
2022-09-23T00:23:53.943Z,11.04
2022-09-23T00:26:23.139Z,11.08
2022-09-23T00:28:51.270Z,11.11
2022-09-23T00:31:21.802Z,11.14
2022-09-23T00:33:55.277Z,11.14
2022-09-23T00:36:23.901Z,11.14
2022-09-23T00:38:51.813Z,11.11
2022-09-23T00:41:20.001Z,11.10
2022-09-23T00:43:47.734Z,11.07
2022-09-23T00:46:19.649Z,11.06
2022-09-23T00:48:48.912Z,11.03
2022-09-23T00:51:20.985Z,10.99
2022-09-23T00:53:50.461Z,10.97
2022-09-23T00:56:20.316Z,10.95
2022-09-23T00:58:49.973Z,10.94
2022-09-23T01:01:17.842Z,10.93
2022-09-23T01:03:47.416Z,10.89
2022-09-23T01:06:15.529Z,10.89
2022-09-23T01:08:44.838Z,10.88
2022-09-23T01:11:24.490Z,10.85
2022-09-23T01:13:56.191Z,10.80
2022-09-23T01:16:52.505Z,10.78
2022-09-23T01:19:43.127Z,10.74
2022-09-23T01:22:10.868Z,10.70
2022-09-23T01:24:47.629Z,10.68
2022-09-23T01:27:30.547Z,10.65
2022-09-23T01:30:20.083Z,10.61
2022-09-23T01:33:11.239Z,10.58
2022-09-23T01:35:47.752Z,10.57
2022-09-23T01:38:36.943Z,10.54
2022-09-23T01:41:16.275Z,10.51
2022-09-23T01:43:54.601Z,10.49
2022-09-23T01:46:51.969Z,10.45
2022-09-23T01:49:25.615Z,10.44
2022-09-23T01:51:58.705Z,10.44
2022-09-23T01:54:34.363Z,10.48
2022-09-23T01:57:13.080Z,10.50
2022-09-23T01:59:45.548Z,10.51
2022-09-23T02:02:22.014Z,10.54
2022-09-23T02:05:16.220Z,10.59
2022-09-23T02:07:52.226Z,10.60
2022-09-23T02:10:24.463Z,10.61
2022-09-23T02:12:57.258Z,10.63
2022-09-23T02:15:34.007Z,10.63
2022-09-23T02:18:15.370Z,10.63
2022-09-23T02:20:43.559Z,10.61
2022-09-23T02:23:22.514Z,10.59
2022-09-23T02:26:08.545Z,10.57
2022-09-23T02:28:55.171Z,10.54
2022-09-23T02:32:01.608Z,10.50
2022-09-23T02:34:38.158Z,10.45
2022-09-23T02:37:21.419Z,10.42
2022-09-23T02:39:51.756Z,10.39
2022-09-23T02:42:23.539Z,10.35
2022-09-23T02:44:51.525Z,10.29
2022-09-23T02:47:24.187Z,10.24
2022-09-23T02:49:53.314Z,10.21
2022-09-23T02:52:21.236Z,10.16
2022-09-23T02:54:49.185Z,10.13
2022-09-23T02:57:17.453Z,10.11
2022-09-23T02:59:46.799Z,10.09
2022-09-23T03:02:21.617Z,10.07
2022-09-23T03:05:23.834Z,10.03
2022-09-23T03:07:59.565Z,10.00
2022-09-23T03:10:37.816Z,9.98
2022-09-23T03:13:47.003Z,9.97
2022-09-23T03:16:39.341Z,9.97
2022-09-23T03:19:27.569Z,10.00
2022-09-23T03:22:11.904Z,10.01
2022-09-23T03:24:40.260Z,10.02
2022-09-23T03:27:13.777Z,10.04
2022-09-23T03:29:45.658Z,10.07
2022-09-23T03:32:15.172Z,10.08
2022-09-23T03:34:44.666Z,10.10
2022-09-23T03:37:36.123Z,10.11
2022-09-23T03:40:12.304Z,10.11
2022-09-23T03:42:40.422Z,10.11
2022-09-23T03:45:13.045Z,10.13
2022-09-23T03:47:42.307Z,10.14
2022-09-23T03:50:10.733Z,10.16
2022-09-23T03:52:39.773Z,10.18
2022-09-23T03:55:08.241Z,10.20
2022-09-23T03:57:37.042Z,10.21
2022-09-23T04:00:06.847Z,10.21
2022-09-23T04:02:39.577Z,10.23
2022-09-23T04:05:08.255Z,10.25
2022-09-23T04:07:36.187Z,10.26
2022-09-23T04:10:05.255Z,10.27
2022-09-23T04:12:33.313Z,10.29
2022-09-23T04:15:01.196Z,10.33
2022-09-23T04:17:29.002Z,10.35
2022-09-23T04:19:56.698Z,10.40
2022-09-23T04:22:24.593Z,10.44
2022-09-23T04:24:52.288Z,10.47
2022-09-23T04:27:20.362Z,10.50
2022-09-23T04:29:48.183Z,10.53
2022-09-23T04:32:15.884Z,10.57
2022-09-23T04:34:43.574Z,10.60
2022-09-23T04:37:11.376Z,10.64
2022-09-23T04:39:39.917Z,10.66
2022-09-23T04:42:08.080Z,10.68
2022-09-23T04:44:36.688Z,10.69
2022-09-23T04:47:04.883Z,10.71
2022-09-23T04:49:33.672Z,10.73
2022-09-23T04:52:02.868Z,10.76
2022-09-23T04:54:30.695Z,10.77
2022-09-23T04:56:58.946Z,10.83
2022-09-23T04:59:26.761Z,10.86
2022-09-23T05:01:55.462Z,10.90
2022-09-23T05:04:23.404Z,10.92
2022-09-23T05:06:51.252Z,10.94
2022-09-23T05:09:19.301Z,10.96
2022-09-23T05:11:47.213Z,10.99
2022-09-23T05:14:15.056Z,11.05
2022-09-23T05:16:43.028Z,11.12
2022-09-23T05:19:13.430Z,11.19
2022-09-23T05:21:41.344Z,11.25
2022-09-23T05:24:09.933Z,11.34
2022-09-23T05:26:38.419Z,11.44
2022-09-23T05:29:06.338Z,11.53
2022-09-23T05:31:35.067Z,11.60
2022-09-23T05:34:05.032Z,11.69
2022-09-23T05:36:38.393Z,11.77
2022-09-23T05:39:07.777Z,11.89
2022-09-23T05:41:36.420Z,11.96
2022-09-23T05:44:04.479Z,12.05
2022-09-23T05:46:33.270Z,12.18
2022-09-23T05:49:03.450Z,12.31
2022-09-23T05:51:33.765Z,12.43
2022-09-23T05:54:04.138Z,12.50
2022-09-23T05:56:33.472Z,12.58
2022-09-23T05:59:02.702Z,12.67
2022-09-23T06:01:33.719Z,12.76
2022-09-23T06:04:04.031Z,12.88
2022-09-23T06:06:40.145Z,12.99
2022-09-23T06:09:13.913Z,13.11
2022-09-23T06:11:43.045Z,13.24
2022-09-23T06:14:12.871Z,13.30
2022-09-23T06:16:41.015Z,13.37
2022-09-23T06:19:09.977Z,13.44
2022-09-23T06:21:39.438Z,13.57
2022-09-23T06:24:08.164Z,13.78
2022-09-23T06:26:37.881Z,14.02
2022-09-23T06:29:14.613Z,14.24
2022-09-23T06:31:43.337Z,14.43
2022-09-23T06:34:13.681Z,14.67
2022-09-23T06:36:46.335Z,14.90
2022-09-23T06:39:15.512Z,15.03
2022-09-23T06:41:46.427Z,15.12
2022-09-23T06:44:16.675Z,15.17
2022-09-23T06:46:44.549Z,15.20
2022-09-23T06:49:13.839Z,15.14
2022-09-23T06:51:41.980Z,15.09
2022-09-23T06:54:11.181Z,15.19
2022-09-23T06:56:40.002Z,15.50
2022-09-23T06:59:10.827Z,15.96
2022-09-23T07:01:39.961Z,16.27
2022-09-23T07:04:08.627Z,16.02
2022-09-23T07:06:37.281Z,15.80
2022-09-23T07:09:08.042Z,16.11
2022-09-23T07:11:35.921Z,16.42
2022-09-23T07:14:03.811Z,16.17
2022-09-23T07:16:33.053Z,16.13
2022-09-23T07:19:00.844Z,16.65
2022-09-23T07:21:28.927Z,17.03
2022-09-23T07:23:58.277Z,16.81
2022-09-23T07:26:26.174Z,16.51
2022-09-23T07:28:57.836Z,16.33
2022-09-23T07:31:37.211Z,16.13
2022-09-23T07:34:08.635Z,16.09
2022-09-23T07:36:40.851Z,16.15
2022-09-23T07:39:11.340Z,16.31
2022-09-23T07:41:39.505Z,16.88
2022-09-23T07:44:08.894Z,17.25
2022-09-23T07:46:37.285Z,16.96
2022-09-23T07:49:06.242Z,16.63
2022-09-23T07:51:37.007Z,16.51
2022-09-23T07:54:09.939Z,16.40
2022-09-23T07:56:38.629Z,16.33
2022-09-23T07:59:08.989Z,16.57
2022-09-23T08:01:41.225Z,17.12
2022-09-23T08:04:13.801Z,17.40
2022-09-23T08:06:46.443Z,17.10
2022-09-23T08:09:16.328Z,17.02
2022-09-23T08:11:45.260Z,18.30
2022-09-23T08:14:15.221Z,20.62
2022-09-23T08:16:44.831Z,22.91
2022-09-23T08:19:13.201Z,24.87
2022-09-23T08:21:41.827Z,26.48
2022-09-23T08:24:14.312Z,28.18
2022-09-23T08:26:43.083Z,29.74
2022-09-23T08:29:15.636Z,31.02
2022-09-23T08:31:44.045Z,32.16
2022-09-23T08:34:11.942Z,33.05
2022-09-23T08:36:39.636Z,34.19
2022-09-23T08:39:12.584Z,35.45
2022-09-23T08:41:59.455Z,36.88
2022-09-23T08:44:34.818Z,38.52
2022-09-23T08:47:10.547Z,39.62
2022-09-23T08:50:01.479Z,40.84
2022-09-23T08:52:36.436Z,42.10
2022-09-23T08:55:04.589Z,42.95
2022-09-23T08:57:36.667Z,43.77
2022-09-23T09:00:05.115Z,44.65
2022-09-23T09:02:34.754Z,45.42
2022-09-23T09:05:06.538Z,46.17
2022-09-23T09:07:37.838Z,44.82
2022-09-23T09:10:39.206Z,43.58
2022-09-23T09:13:17.024Z,41.32
2022-09-23T09:15:58.660Z,38.99
2022-09-23T09:18:30.991Z,38.71
2022-09-23T09:21:14.490Z,38.17
2022-09-23T09:23:55.046Z,38.08
2022-09-23T09:26:25.964Z,38.59
2022-09-23T09:29:17.240Z,39.20
2022-09-23T09:31:51.020Z,37.47
2022-09-23T09:34:31.002Z,36.02
2022-09-23T09:37:07.167Z,35.49
2022-09-23T09:39:36.435Z,36.62
2022-09-23T09:42:06.799Z,38.34
2022-09-23T09:44:37.095Z,39.57
2022-09-23T09:47:28.774Z,40.39
2022-09-23T09:50:11.895Z,41.09
2022-09-23T09:52:42.402Z,42.23
2022-09-23T09:55:13.324Z,43.45
2022-09-23T09:57:48.405Z,43.97
2022-09-23T10:00:35.779Z,44.29
2022-09-23T10:03:05.063Z,44.34
2022-09-23T10:05:34.361Z,43.54
2022-09-23T10:08:35.234Z,42.16
2022-09-23T10:11:08.209Z,39.46
2022-09-23T10:13:36.782Z,38.45
2022-09-23T10:16:05.050Z,38.42
2022-09-23T10:18:49.549Z,37.97
2022-09-23T10:21:25.477Z,36.22
2022-09-23T10:23:55.153Z,34.03
2022-09-23T10:26:32.470Z,32.99
2022-09-23T10:29:24.736Z,33.02
2022-09-23T10:32:17.332Z,32.35
2022-09-23T10:34:47.999Z,31.38
2022-09-23T10:37:27.760Z,30.55
2022-09-23T10:40:14.245Z,30.72
2022-09-23T10:43:13.189Z,31.21
2022-09-23T10:46:06.836Z,30.72
2022-09-23T10:48:37.839Z,29.35
2022-09-23T10:51:26.396Z,28.13
2022-09-23T10:54:13.365Z,27.77
2022-09-23T10:57:40.730Z,27.47
2022-09-23T11:00:30.412Z,26.44
2022-09-23T11:03:19.585Z,25.66
2022-09-23T11:06:11.287Z,25.51
2022-09-23T11:09:11.294Z,25.69
2022-09-23T11:12:01.279Z,25.49
2022-09-23T11:14:47.154Z,25.34
2022-09-23T11:17:27.200Z,24.89
2022-09-23T11:19:58.043Z,24.12
2022-09-23T11:22:36.088Z,23.53
2022-09-23T11:25:16.830Z,23.11
2022-09-23T11:27:58.737Z,22.76
2022-09-23T11:30:37.308Z,22.70
2022-09-23T11:33:05.718Z,23.33
2022-09-23T11:35:51.300Z,23.56
2022-09-23T11:38:29.525Z,23.81
2022-09-23T11:41:15.747Z,23.80
2022-09-23T11:43:44.589Z,23.36
2022-09-23T11:46:23.602Z,22.84
2022-09-23T11:49:22.749Z,22.28
2022-09-23T11:51:50.508Z,21.45
2022-09-23T11:54:24.520Z,20.96
2022-09-23T11:56:54.549Z,20.82
2022-09-23T11:59:38.250Z,20.70
2022-09-23T12:02:30.603Z,20.68
2022-09-23T12:05:14.127Z,20.73
2022-09-23T12:08:09.795Z,20.86
2022-09-23T12:10:41.840Z,21.18
2022-09-23T12:13:19.178Z,21.58
2022-09-23T12:16:26.303Z,21.86
2022-09-23T12:19:32.489Z,22.09
2022-09-23T12:22:36.629Z,22.41
2022-09-23T12:25:46.669Z,22.37
2022-09-23T12:28:20.735Z,22.14
2022-09-23T12:30:49.871Z,21.54
2022-09-23T12:33:27.386Z,20.92
2022-09-23T12:36:09.708Z,20.38
2022-09-23T12:38:57.728Z,19.89
2022-09-23T12:41:37.459Z,19.37
2022-09-23T12:44:12.033Z,18.92
2022-09-23T12:46:46.859Z,18.63
2022-09-23T12:49:30.009Z,18.44
2022-09-23T12:52:13.507Z,18.29
2022-09-23T12:54:42.948Z,18.10
2022-09-23T12:57:12.916Z,17.89
2022-09-23T12:59:58.531Z,17.76
2022-09-23T13:02:29.897Z,17.58
2022-09-23T13:05:22.863Z,17.44
2022-09-23T13:07:51.532Z,17.33
2022-09-23T13:10:25.076Z,17.21
2022-09-23T13:12:53.401Z,17.10
2022-09-23T13:15:26.319Z,17.00
2022-09-23T13:18:22.783Z,16.91
2022-09-23T13:20:52.083Z,16.79
2022-09-23T13:23:24.253Z,16.70
2022-09-23T13:25:58.029Z,16.60
2022-09-23T13:28:42.318Z,16.52
2022-09-23T13:31:15.153Z,16.51
2022-09-23T13:33:46.306Z,16.51
2022-09-23T13:36:17.130Z,16.48
2022-09-23T13:38:49.188Z,16.42
2022-09-23T13:41:20.751Z,16.38
2022-09-23T13:43:58.819Z,16.35
2022-09-23T13:46:30.124Z,16.38
2022-09-23T13:48:58.089Z,16.36
2022-09-23T13:51:33.354Z,16.32
2022-09-23T13:54:03.123Z,16.26
2022-09-23T13:56:33.116Z,16.19
2022-09-23T13:59:24.935Z,16.08
2022-09-23T14:02:12.333Z,15.94
2022-09-23T14:04:40.587Z,15.80
2022-09-23T14:07:10.218Z,15.69
2022-09-23T14:09:42.279Z,15.61
2022-09-23T14:12:10.735Z,15.57
2022-09-23T14:14:40.510Z,15.57
2022-09-23T14:17:08.970Z,15.56
2022-09-23T14:19:37.315Z,15.57
2022-09-23T14:22:09.195Z,15.67
2022-09-23T14:24:39.649Z,15.91
2022-09-23T14:27:08.019Z,16.18
2022-09-23T14:29:38.866Z,16.45
2022-09-23T14:32:21.042Z,16.56
2022-09-23T14:34:49.949Z,16.59
2022-09-23T14:37:54.632Z,16.59
2022-09-23T14:40:29.537Z,16.56
2022-09-23T14:43:28.955Z,16.56
2022-09-23T14:45:57.954Z,16.53
2022-09-23T14:48:31.061Z,16.50
2022-09-23T14:51:04.459Z,16.44
2022-09-23T14:53:34.705Z,16.36
2022-09-23T14:56:22.327Z,16.28
2022-09-23T14:59:00.704Z,16.20
2022-09-23T15:01:34.908Z,16.10
2022-09-23T15:04:13.156Z,16.01
2022-09-23T15:06:46.865Z,15.94
2022-09-23T15:09:23.997Z,15.84
2022-09-23T15:11:53.699Z,15.72
2022-09-23T15:14:37.090Z,15.60
2022-09-23T15:17:15.228Z,15.49
2022-09-23T15:19:43.065Z,15.40
2022-09-23T15:22:11.215Z,15.31
2022-09-23T15:24:45.991Z,15.22
2022-09-23T15:27:26.395Z,15.16
2022-09-23T15:29:54.472Z,15.08
2022-09-23T15:32:22.505Z,14.99
2022-09-23T15:34:51.315Z,14.87
2022-09-23T15:37:19.159Z,14.76
2022-09-23T15:39:48.353Z,14.63
2022-09-23T15:42:18.338Z,14.51
2022-09-23T15:44:46.260Z,14.38
2022-09-23T15:47:18.945Z,14.24
2022-09-23T15:49:47.328Z,14.12
2022-09-23T15:52:16.069Z,14.00
2022-09-23T15:54:44.755Z,13.89
2022-09-23T15:57:12.955Z,13.77
2022-09-23T15:59:41.672Z,13.65
2022-09-23T16:02:16.711Z,13.54
2022-09-23T16:04:47.322Z,13.41
2022-09-23T16:07:17.126Z,13.28
2022-09-23T16:09:44.961Z,13.16
2022-09-23T16:12:13.211Z,13.02
2022-09-23T16:14:41.016Z,12.89
2022-09-23T16:17:13.167Z,12.89
2022-09-23T16:19:41.056Z,13.36
2022-09-23T16:22:10.495Z,13.82
2022-09-23T16:24:38.228Z,14.12
2022-09-23T16:27:07.812Z,14.32
2022-09-23T16:29:35.892Z,14.40
2022-09-23T16:32:04.296Z,14.02
2022-09-23T16:34:34.870Z,13.54
2022-09-23T16:37:04.743Z,13.21
2022-09-23T16:39:32.789Z,13.11
2022-09-23T16:42:00.763Z,13.38
2022-09-23T16:44:28.633Z,13.68
2022-09-23T16:46:57.799Z,13.87
2022-09-23T16:49:27.436Z,13.99
2022-09-23T16:51:55.287Z,14.00
2022-09-23T16:54:23.896Z,13.54
2022-09-23T16:56:52.239Z,13.02
2022-09-23T16:59:20.178Z,12.59
2022-09-23T17:02:06.792Z,12.36
2022-09-23T17:04:34.684Z,12.65
2022-09-23T17:07:02.748Z,12.95
2022-09-23T17:09:31.897Z,13.13
2022-09-23T17:12:34.705Z,13.24
2022-09-23T17:15:07.444Z,13.30
2022-09-23T17:17:39.381Z,13.34
2022-09-23T17:20:07.606Z,13.36
2022-09-23T17:22:35.459Z,13.37
2022-09-23T17:25:03.923Z,13.37
2022-09-23T17:27:32.073Z,13.38
2022-09-23T17:29:59.808Z,13.37
2022-09-23T17:32:27.912Z,13.36
2022-09-23T17:34:55.695Z,13.33
2022-09-23T17:37:23.572Z,13.31
2022-09-23T17:39:51.746Z,13.06
2022-09-23T17:44:01.683Z,12.05
2022-09-23T17:46:31.027Z,11.68
2022-09-23T17:48:58.813Z,11.85
2022-09-23T17:51:27.820Z,12.09
2022-09-23T17:53:55.790Z,12.24
2022-09-23T17:56:25.646Z,12.32
2022-09-23T17:58:54.148Z,12.38
2022-09-23T18:01:24.943Z,12.41
2022-09-23T18:03:57.620Z,12.43
2022-09-23T18:06:28.885Z,12.44
2022-09-23T18:08:58.309Z,12.44
2022-09-23T18:11:27.406Z,12.44
2022-09-23T18:14:01.190Z,12.42
2022-09-23T18:16:31.527Z,12.42
2022-09-23T18:19:00.952Z,12.43
2022-09-23T18:21:31.784Z,12.42
2022-09-23T18:26:52.905Z,12.42
2022-09-23T18:29:20.716Z,12.42
2022-09-23T18:31:49.403Z,12.43
2022-09-23T18:34:17.470Z,12.44
2022-09-23T18:36:45.774Z,12.47
2022-09-23T18:39:15.012Z,12.51
2022-09-23T18:41:43.384Z,12.53
2022-09-23T18:44:11.351Z,12.59
2022-09-23T18:46:39.677Z,12.65
2022-09-23T18:49:26.334Z,12.67
2022-09-23T18:51:56.641Z,12.27
2022-09-23T18:54:28.124Z,11.84
2022-09-23T18:56:56.663Z,12.01
2022-09-23T18:59:28.031Z,12.26
2022-09-23T19:01:57.922Z,12.46
2022-09-23T19:04:27.361Z,12.60
2022-09-23T19:06:56.771Z,12.70
2022-09-23T19:09:25.453Z,12.82
2022-09-23T19:11:53.778Z,12.92
2022-09-23T19:14:21.619Z,13.00
2022-09-23T19:16:50.627Z,13.09
2022-09-23T19:19:18.599Z,13.17
2022-09-23T19:21:46.650Z,13.24
2022-09-23T19:24:19.921Z,13.31
2022-09-23T19:26:48.864Z,13.39
2022-09-23T19:29:19.604Z,13.45
2022-09-23T19:31:48.776Z,13.52
2022-09-23T19:34:19.985Z,13.58
2022-09-23T19:36:48.606Z,13.64
2022-09-23T19:39:17.501Z,13.68
2022-09-23T19:41:46.815Z,13.72
2022-09-23T19:44:15.269Z,13.74
2022-09-23T19:46:45.547Z,13.73
2022-09-23T19:49:13.795Z,13.74
2022-09-23T19:51:44.041Z,13.70
2022-09-23T19:54:14.526Z,13.34
2022-09-23T19:56:43.307Z,12.73
2022-09-23T19:59:14.168Z,12.32
2022-09-23T20:01:46.861Z,12.45
2022-09-23T20:04:15.865Z,12.66
2022-09-23T20:06:45.839Z,12.78
2022-09-23T20:09:14.110Z,12.84
2022-09-23T20:11:44.352Z,12.86
2022-09-23T20:14:13.013Z,12.86
2022-09-23T20:16:41.147Z,12.85
2022-09-23T20:19:09.837Z,12.82
2022-09-23T20:21:37.667Z,12.80
2022-09-23T20:24:07.569Z,12.77
2022-09-23T20:26:54.201Z,12.74
2022-09-23T20:29:23.789Z,12.70
2022-09-23T20:31:51.705Z,12.66
2022-09-23T20:34:20.442Z,12.61
2022-09-23T20:36:48.575Z,12.56
2022-09-23T20:39:16.336Z,12.48
2022-09-23T20:41:44.677Z,12.18
2022-09-23T20:44:13.076Z,11.51
2022-09-23T20:46:47.806Z,11.02
2022-09-23T20:49:17.598Z,11.10
2022-09-23T20:51:47.919Z,11.30
2022-09-23T20:54:19.213Z,11.42
2022-09-23T20:56:48.730Z,11.48
2022-09-23T20:59:18.936Z,11.51
2022-09-23T21:01:47.873Z,11.53
2022-09-23T21:04:16.023Z,11.52
2022-09-23T21:06:43.734Z,11.47
2022-09-23T21:09:11.751Z,11.43
2022-09-23T21:11:40.665Z,11.38
2022-09-23T21:14:08.705Z,11.36
2022-09-23T21:16:37.067Z,11.34
2022-09-23T21:19:08.250Z,11.32
2022-09-23T21:21:36.373Z,11.30
2022-09-23T21:24:33.035Z,11.28
2022-09-23T21:26:52.371Z,11.24
2022-09-23T21:29:20.144Z,11.22
2022-09-23T21:31:49.664Z,11.19
2022-09-23T21:34:18.340Z,11.16
2022-09-23T21:36:48.148Z,11.13
2022-09-23T21:39:16.040Z,11.11
2022-09-23T21:41:43.813Z,11.08
2022-09-23T21:44:11.991Z,11.05
2022-09-23T21:46:39.836Z,11.00
2022-09-23T21:49:09.093Z,10.97
2022-09-23T21:51:41.010Z,10.94
2022-09-23T21:54:14.194Z,10.91
2022-09-23T21:56:43.165Z,10.89
2022-09-23T21:59:11.437Z,10.85
2022-09-23T22:01:44.520Z,10.80
2022-09-23T22:04:20.710Z,10.74
2022-09-23T22:06:49.253Z,10.68
2022-09-23T22:09:19.163Z,10.64
2022-09-23T22:12:07.758Z,10.62
2022-09-23T22:14:38.989Z,10.60
2022-09-23T22:17:10.372Z,10.58
2022-09-23T22:19:45.793Z,10.57
2022-09-23T22:22:16.494Z,10.56
2022-09-23T22:24:46.637Z,10.54
2022-09-23T22:27:18.262Z,10.48
2022-09-23T22:30:04.654Z,10.43
2022-09-23T22:32:43.472Z,10.40
2022-09-23T22:35:13.888Z,10.35
2022-09-23T22:37:41.766Z,10.28
2022-09-23T22:40:14.549Z,10.25
2022-09-23T22:42:42.885Z,10.22
2022-09-23T22:45:13.327Z,10.19
2022-09-23T22:47:45.511Z,10.15
2022-09-23T22:50:14.754Z,10.15
2022-09-23T22:52:43.106Z,10.15
2022-09-23T22:55:11.875Z,10.15
2022-09-23T22:57:39.612Z,10.15
2022-09-23T23:00:08.503Z,10.13
2022-09-23T23:02:36.843Z,10.12
2022-09-23T23:05:05.011Z,10.09
2022-09-23T23:07:36.147Z,10.07
2022-09-23T23:10:04.746Z,10.04
2022-09-23T23:12:33.562Z,10.00
2022-09-23T23:15:01.266Z,9.96
2022-09-23T23:17:29.839Z,9.93
2022-09-23T23:19:58.087Z,9.89
2022-09-23T23:22:28.417Z,9.86
2022-09-23T23:24:56.674Z,9.82
2022-09-23T23:27:24.491Z,9.81
2022-09-23T23:29:52.434Z,9.81
2022-09-23T23:32:20.139Z,9.78
2022-09-23T23:34:47.856Z,9.74
2022-09-23T23:37:20.074Z,9.71
2022-09-23T23:39:48.951Z,9.70
2022-09-23T23:42:17.252Z,9.72
2022-09-23T23:44:45.390Z,9.74
2022-09-23T23:47:13.322Z,9.73
2022-09-23T23:49:41.182Z,9.69
2022-09-23T23:52:08.985Z,9.67
2022-09-23T23:54:36.694Z,9.64
2022-09-23T23:57:04.497Z,9.64
2022-09-23T23:59:34.399Z,9.61
